Time;durP1;ratioP1;P1;durP2;ratioP2;P2;SDS_P1;SDS_P2;PMS_P1;PMS_P2;Temp;Humidity;BMP_temperature;BMP_pressure;BME280_temperature;BME280_humidity;BME280_pressure;Samples;Min_cycle;Max_cycle;Signal;HPM_P1;HPM_P2
2021/06/30 00:00:22;;;;;;;;;;;;;;;21.59;58.14;100018.53;2061858;28;19920;-61
2021/06/30 00:01:22;;;;;;;;;;;;;;;21.59;57.67;100017.69;2061678;28;20395;-61
2021/06/30 00:02:23;;;;;;;;;;;;;;;21.60;58.05;100019.38;2061674;28;19913;-62
2021/06/30 00:03:23;;;;;;;;;;;;;;;21.60;58.09;100013.91;2063773;28;20590;-62
2021/06/30 00:04:23;;;;;;;;;;;;;;;;;;2052961;28;19940;-62
2021/06/30 00:05:24;;;;;;;;;;;;;;;21.59;57.79;100015.78;2054065;28;19945;-62
2021/06/30 00:06:24;;;;;;;;;;;;;;;21.58;57.87;100024.16;2062128;28;21651;-61
2021/06/30 00:07:24;;;;;;;;;;;;;;;21.59;57.82;100017.69;2062351;28;19910;-62
2021/06/30 00:08:24;;;;;;;;;;;;;;;21.58;58.03;100026.91;2063469;28;19914;-62
2021/06/30 00:09:25;;;;;;;;;;;;;;;21.57;57.83;100026.06;2061714;28;19917;-61
2021/06/30 00:10:25;;;;;;;;;;;;;;;21.57;58.01;100026.06;2063319;28;20633;-61
2021/06/30 00:11:26;;;;;;;;;;;;;;;21.57;58.16;100022.47;2061729;28;20024;-61
2021/06/30 00:12:26;;;;;;;;;;;;;;;;;;2061400;28;20671;-61
2021/06/30 00:13:27;;;;;;;;;;;;;;;21.57;57.99;100020.56;2063120;28;19913;-62
2021/06/30 00:14:27;;;;;;;;;;;;;;;21.57;58.04;100015.09;2062571;28;19956;-61
2021/06/30 00:15:29;;;;;;;;;;;;;;;21.60;58.03;100019.38;2058975;28;19956;-62
2021/06/30 00:16:33;;;;;;;;;;;;;;;21.57;57.79;100008.75;2062858;28;20573;-62
2021/06/30 00:17:33;;;;;;;;;;;;;;;21.59;57.90;100021.28;2063256;28;19913;-61
2021/06/30 00:18:34;;;;;;;;;;;;;;;21.59;58.00;100024.00;2053468;28;20049;-61
2021/06/30 00:19:34;;;;;;;;;;;;;;;21.60;57.78;100024.88;2046042;28;20037;-62
2021/06/30 00:20:36;;;;;;;;;;;;;;;21.59;58.09;100018.53;2053537;28;19936;-62
2021/06/30 00:21:36;;;;;;;;;;;;;;;21.57;58.16;100019.72;2063293;28;19909;-61
2021/06/30 00:22:36;;;;;;;;;;;;;;;21.59;58.03;100020.41;2064189;28;19920;-61
2021/06/30 00:23:37;;;;;;;;;;;;;;;21.57;57.64;100020.56;2062054;28;20324;-62
2021/06/30 00:24:37;;;;;;;;;;;;;;;21.57;57.77;100022.47;2064125;28;19913;-62
2021/06/30 00:25:37;;;;;;;;;;;;;;;21.58;57.87;100018.69;2060967;28;20521;-62
2021/06/30 00:26:38;;;;;;;;;;;;;;;21.59;57.77;100017.69;2062725;28;19913;-62
2021/06/30 00:27:38;;;;;;;;;;;;;;;21.59;57.97;100028.66;2062436;28;20506;-62
2021/06/30 00:28:39;;;;;;;;;;;;;;;21.57;57.89;100025.22;2062027;28;20012;-61
2021/06/30 00:29:39;;;;;;;;;;;;;;;21.59;57.83;100015.78;2063057;28;19905;-62
2021/06/30 00:30:39;;;;;;;;;;;;;;;21.59;57.96;100018.53;2062816;28;20643;-62
2021/06/30 00:31:40;;;;;;;;;;;;;;;21.58;57.94;100024.16;2062787;28;19913;-61
2021/06/30 00:32:40;;;;;;;;;;;;;;;21.59;57.76;100020.41;2060855;28;19966;-62
2021/06/30 00:33:41;;;;;;;;;;;;;;;21.58;57.87;100021.44;2061772;28;19983;-62
2021/06/30 00:34:41;;;;;;;;;;;;;;;21.58;57.74;100015.94;2061486;28;20059;-61
2021/06/30 00:35:41;;;;;;;;;;;;;;;21.59;57.79;100017.69;2063278;28;20380;-62
2021/06/30 00:36:46;;;;;;;;;;;;;;;21.57;58.00;100012.34;2062062;28;20483;-62
2021/06/30 00:37:47;;;;;;;;;;;;;;;21.57;58.13;100015.09;2062740;28;19914;-61
2021/06/30 00:38:47;;;;;;;;;;;;;;;21.57;57.81;100014.25;2064343;28;19918;-61
2021/06/30 00:39:47;;;;;;;;;;;;;;;21.57;58.02;100008.75;2062363;28;20460;-61
2021/06/30 00:40:48;;;;;;;;;;;;;;;21.56;57.96;100012.53;2062936;28;19921;-61
2021/06/30 00:41:49;;;;;;;;;;;;;;;21.56;58.10;100012.53;2061671;28;20268;-62
2021/06/30 00:42:49;;;;;;;;;;;;;;;21.55;57.95;100016.28;2061460;28;19913;-62
2021/06/30 00:43:50;;;;;;;;;;;;;;;21.55;58.01;100016.28;2063127;28;20332;-61
2021/06/30 00:44:50;;;;;;;;;;;;;;;21.56;58.10;100012.53;2061122;28;19945;-62
2021/06/30 00:45:50;;;;;;;;;;;;;;;21.56;57.92;100013.38;2057768;28;19910;-62
2021/06/30 00:46:51;;;;;;;;;;;;;;;21.57;58.12;100015.09;2057294;28;19917;-61
2021/06/30 00:47:51;;;;;;;;;;;;;;;21.57;57.72;100019.72;2055876;28;19971;-60
2021/06/30 00:48:51;;;;;;;;;;;;;;;21.59;58.03;100012.19;2061251;28;20430;-60
2021/06/30 00:49:52;;;;;;;;;;;;;;;21.57;57.79;100011.50;2063285;28;19960;-60
2021/06/30 00:50:52;;;;;;;;;;;;;;;21.57;57.88;100016.97;2063024;28;19913;-60
2021/06/30 00:51:53;;;;;;;;;;;;;;;21.56;57.96;100012.53;2062372;28;19924;-60
2021/06/30 00:52:53;;;;;;;;;;;;;;;21.55;58.01;100006.16;2058883;28;20405;-60
2021/06/30 00:53:54;;;;;;;;;;;;;;;21.59;57.82;100012.19;2060724;28;19924;-60
2021/06/30 00:54:54;;;;;;;;;;;;;;;21.57;58.00;100008.75;2062701;28;19909;-61
2021/06/30 00:55:54;;;;;;;;;;;;;;;21.57;57.99;100003.28;2063175;28;19909;-60
2021/06/30 00:56:55;;;;;;;;;;;;;;;21.57;57.87;100006.00;2061468;28;20541;-60
2021/06/30 00:57:55;;;;;;;;;;;;;;;21.57;57.95;100008.75;2062583;28;19925;-60
2021/06/30 00:58:58;;;;;;;;;;;;;;;21.57;58.04;100015.09;2062334;28;19960;-62
2021/06/30 00:59:58;;;;;;;;;;;;;;;21.57;57.99;100003.28;2061486;28;19909;-62
2021/06/30 01:00:59;;;;;;;;;;;;;;;21.56;57.83;99996.94;2062723;28;19906;-59
2021/06/30 01:01:59;;;;;;;;;;;;;;;21.56;57.70;100002.41;2061521;28;20016;-60
2021/06/30 01:02:59;;;;;;;;;;;;;;;21.57;57.64;99997.78;2062824;28;20731;-60
2021/06/30 01:03:59;;;;;;;;;;;;;;;21.57;57.93;100003.28;2063028;28;19917;-60
2021/06/30 01:05:00;;;;;;;;;;;;;;;21.59;58.01;100001.22;2062092;28;19912;-60
2021/06/30 01:06:00;;;;;;;;;;;;;;;21.57;57.81;100000.53;2059903;28;19931;-60
2021/06/30 01:07:01;;;;;;;;;;;;;;;21.56;58.02;100001.56;2062237;28;19921;-60
2021/06/30 01:08:04;;;;;;;;;;;;;;;21.55;57.78;99994.34;2063605;28;19910;-60
2021/06/30 01:09:06;;;;;;;;;;;;;;;21.56;58.01;99996.94;2062178;28;19924;-60
2021/06/30 01:10:07;;;;;;;;;;;;;;;21.57;57.83;99992.31;2062822;28;20028;-60
2021/06/30 01:11:08;;;;;;;;;;;;;;;21.55;57.87;99997.94;2061431;28;19993;-60
2021/06/30 01:12:08;;;;;;;;;;;;;;;21.54;57.83;99988.00;2063057;28;19913;-60
2021/06/30 01:13:08;;;;;;;;;;;;;;;21.55;57.87;99997.09;2062603;28;20007;-60
2021/06/30 01:14:09;;;;;;;;;;;;;;;21.55;58.05;99988.88;2061818;28;19917;-60
2021/06/30 01:15:10;;;;;;;;;;;;;;;21.55;58.02;99997.09;2062210;28;19913;-60
2021/06/30 01:16:11;;;;;;;;;;;;;;;21.54;57.71;99988.00;2062072;28;19920;-60
2021/06/30 01:17:11;;;;;;;;;;;;;;;21.54;58.13;99987.16;2062791;28;19913;-61
2021/06/30 01:18:11;;;;;;;;;;;;;;;21.55;57.94;99988.88;2061181;28;19924;-60
2021/06/30 01:19:12;;;;;;;;;;;;;;;21.54;58.08;99984.41;2062377;28;19942;-60
2021/06/30 01:20:13;;;;;;;;;;;;;;;21.54;57.95;99987.16;2062472;28;19921;-60
2021/06/30 01:21:15;;;;;;;;;;;;;;;21.54;57.92;99976.19;2062474;28;19917;-60
2021/06/30 01:22:15;;;;;;;;;;;;;;;21.53;58.06;99979.94;2061894;28;19917;-60
2021/06/30 01:23:16;;;;;;;;;;;;;;;21.54;58.12;99978.94;2062045;28;20368;-61
2021/06/30 01:24:17;;;;;;;;;;;;;;;21.53;57.92;99978.03;2062513;28;19964;-60
2021/06/30 01:25:17;;;;;;;;;;;;;;;21.54;58.07;99973.44;2061132;28;19936;-60
2021/06/30 01:26:18;;;;;;;;;;;;;;;21.55;58.01;99981.50;2062468;28;20067;-60
2021/06/30 01:27:19;;;;;;;;;;;;;;;21.54;58.12;99971.56;2063169;28;20370;-61
2021/06/30 01:28:20;;;;;;;;;;;;;;;21.55;57.77;99972.41;2060324;28;19921;-61
2021/06/30 01:29:22;;;;;;;;;;;;;;;21.55;57.80;99966.91;2062145;28;19996;-60
2021/06/30 01:30:22;;;;;;;;;;;;;;;21.55;58.07;99972.41;2061869;28;20671;-60
2021/06/30 01:31:22;;;;;;;;;;;;;;;21.54;57.90;99967.97;2062625;28;19979;-60
2021/06/30 01:32:23;;;;;;;;;;;;;;;21.55;57.80;99967.78;2062816;28;19960;-60
2021/06/30 01:33:24;;;;;;;;;;;;;;;21.55;58.02;99972.41;2062002;28;19925;-60
2021/06/30 01:34:24;;;;;;;;;;;;;;;21.55;57.87;99977.88;2062787;28;19913;-60
2021/06/30 01:35:25;;;;;;;;;;;;;;;21.54;57.90;99970.69;2061944;28;19910;-60
2021/06/30 01:36:25;;;;;;;;;;;;;;;21.56;58.14;99968.66;2061925;28;19917;-60
2021/06/30 01:37:25;;;;;;;;;;;;;;;21.54;57.90;99973.44;2062234;28;19959;-60
2021/06/30 01:38:27;;;;;;;;;;;;;;;21.55;57.93;99969.66;2061428;28;20023;-60
2021/06/30 01:39:27;;;;;;;;;;;;;;;21.55;57.89;99967.78;2062681;28;20403;-60
2021/06/30 01:40:27;;;;;;;;;;;;;;;21.54;57.65;99971.56;2060151;28;20555;-60
2021/06/30 01:41:28;;;;;;;;;;;;;;;21.55;57.89;99972.41;2062631;28;19914;-60
2021/06/30 01:42:28;;;;;;;;;;;;;;;21.55;57.79;99972.41;2062488;28;19914;-60
2021/06/30 01:43:28;;;;;;;;;;;;;;;21.54;58.02;99976.19;2062059;28;19912;-60
2021/06/30 01:44:29;;;;;;;;;;;;;;;21.54;57.98;99971.56;2062498;28;19905;-60
2021/06/30 01:45:29;;;;;;;;;;;;;;;21.54;57.78;99977.03;2062523;28;19956;-60
2021/06/30 01:46:30;;;;;;;;;;;;;;;21.54;57.86;99973.44;2061856;28;19908;-60
2021/06/30 01:47:30;;;;;;;;;;;;;;;21.54;57.85;99968.81;2063052;28;19906;-60
2021/06/30 01:48:30;;;;;;;;;;;;;;;21.54;57.88;99965.22;2061075;28;19901;-60
2021/06/30 01:49:30;;;;;;;;;;;;;;;21.54;57.81;99970.69;2063017;28;19917;-60
2021/06/30 01:50:31;;;;;;;;;;;;;;;21.56;58.04;99969.50;2061640;28;19918;-60
2021/06/30 01:51:32;;;;;;;;;;;;;;;21.55;57.78;99969.66;2064396;28;19974;-60
2021/06/30 01:52:32;;;;;;;;;;;;;;;21.55;58.04;99972.41;2060599;28;19951;-60
2021/06/30 01:53:32;;;;;;;;;;;;;;;21.55;57.89;99977.88;2062365;28;19989;-60
2021/06/30 01:54:33;;;;;;;;;;;;;;;21.54;57.98;99970.69;2063270;28;20443;-60
2021/06/30 01:55:35;;;;;;;;;;;;;;;21.54;57.98;99965.22;2061395;28;20380;-60
2021/06/30 01:56:35;;;;;;;;;;;;;;;21.54;57.97;99973.44;2062642;28;20243;-60
2021/06/30 01:58:01;;;;;;;;;;;;;;;21.56;57.80;99964.03;2062303;28;19948;-59
2021/06/30 01:59:12;;;;;;;;;;;;;;;21.54;57.92;99959.72;2057619;28;20253;-59
2021/06/30 02:00:13;;;;;;;;;;;;;;;21.54;57.70;99959.72;2061424;28;19913;-61
2021/06/30 02:01:13;;;;;;;;;;;;;;;21.54;58.03;99965.22;2045908;28;20313;-60
2021/06/30 02:02:14;;;;;;;;;;;;;;;21.57;57.67;99959.38;2049998;28;19968;-60
2021/06/30 02:03:14;;;;;;;;;;;;;;;21.54;57.94;99960.59;2054980;28;19992;-60
2021/06/30 02:04:15;;;;;;;;;;;;;;;21.55;57.71;99962.28;2061384;28;19913;-60
2021/06/30 02:05:15;;;;;;;;;;;;;;;21.56;57.76;99958.53;2062135;28;19917;-60
2021/06/30 02:06:15;;;;;;;;;;;;;;;21.57;57.73;99964.88;2063823;28;19999;-60
2021/06/30 02:07:16;;;;;;;;;;;;;;;21.56;57.96;99963.16;2061394;28;19921;-60
2021/06/30 02:08:17;;;;;;;;;;;;;;;21.55;57.81;99954.06;2062553;28;19921;-60
2021/06/30 02:09:18;;;;;;;;;;;;;;;21.55;57.75;99961.44;2062845;28;19917;-60
2021/06/30 02:10:19;;;;;;;;;;;;;;;21.55;57.69;99961.44;2061283;28;19945;-60
2021/06/30 02:11:19;;;;;;;;;;;;;;;21.55;57.75;99955.94;2062516;28;19924;-60
2021/06/30 02:12:19;;;;;;;;;;;;;;;21.55;57.93;99964.19;2061689;28;19913;-61
2021/06/30 02:13:20;;;;;;;;;;;;;;;21.54;57.66;99970.69;2062593;28;19910;-60
2021/06/30 02:14:20;;;;;;;;;;;;;;;21.53;57.70;99968.97;2062246;28;19914;-60
2021/06/30 02:15:27;;;;;;;;;;;;;;;21.53;58.08;99969.81;2062825;28;19913;-60
2021/06/30 02:16:27;;;;;;;;;;;;;;;21.52;58.00;99972.75;2062366;28;20396;-60
2021/06/30 02:17:27;;;;;;;;;;;;;;;21.51;57.67;99969.16;2062128;28;20288;-60
2021/06/30 02:18:27;;;;;;;;;;;;;;;21.54;57.81;99976.19;2061773;28;19960;-60
2021/06/30 02:19:28;;;;;;;;;;;;;;;21.53;57.74;99979.94;2061757;28;19909;-60
2021/06/30 02:20:28;;;;;;;;;;;;;;;21.54;57.97;99970.69;2062443;28;19932;-60
2021/06/30 02:21:29;;;;;;;;;;;;;;;21.54;58.04;99973.44;2062190;28;19979;-60
2021/06/30 02:22:29;;;;;;;;;;;;;;;21.53;57.93;99974.47;2062389;28;19919;-60
2021/06/30 02:23:29;;;;;;;;;;;;;;;21.53;58.04;99977.19;2062330;28;19920;-60
2021/06/30 02:24:30;;;;;;;;;;;;;;;21.52;57.81;99978.25;2061474;28;19920;-60
2021/06/30 02:25:30;;;;;;;;;;;;;;;21.53;57.98;99979.94;2062325;28;20368;-60
2021/06/30 02:26:33;;;;;;;;;;;;;;;21.52;58.00;99970.00;2060842;28;19913;-60
2021/06/30 02:27:34;;;;;;;;;;;;;;;21.53;57.98;99969.81;2061851;28;20188;-60
2021/06/30 02:28:34;;;;;;;;;;;;;;;21.53;58.07;99975.31;2062252;28;19913;-60
2021/06/30 02:29:35;;;;;;;;;;;;;;;21.52;57.90;99973.59;2062466;28;19999;-60
2021/06/30 02:30:35;;;;;;;;;;;;;;;21.53;57.98;99971.72;2064286;28;19909;-60
2021/06/30 02:31:35;;;;;;;;;;;;;;;21.52;57.85;99967.25;2062993;28;20384;-60
2021/06/30 02:32:36;;;;;;;;;;;;;;;21.54;57.88;99974.28;2063588;28;19910;-60
2021/06/30 02:33:36;;;;;;;;;;;;;;;21.53;57.79;99966.22;2063329;28;20318;-60
2021/06/30 02:34:36;;;;;;;;;;;;;;;21.52;58.12;99967.25;2063239;28;19905;-60
2021/06/30 02:35:37;;;;;;;;;;;;;;;21.53;57.78;99975.31;2060163;28;19980;-60
2021/06/30 02:36:37;;;;;;;;;;;;;;;21.53;57.80;99968.97;2061292;28;19914;-60
2021/06/30 02:37:38;;;;;;;;;;;;;;;21.53;57.93;99968.97;2063083;28;20451;-62
2021/06/30 02:38:39;;;;;;;;;;;;;;;21.54;57.97;99970.69;2063257;28;19913;-61
2021/06/30 02:39:39;;;;;;;;;;;;;;;21.53;57.78;99974.47;2064032;28;19914;-62
2021/06/30 02:40:40;;;;;;;;;;;;;;;21.52;57.84;99972.75;2063110;28;19949;-61
2021/06/30 02:41:40;;;;;;;;;;;;;;;21.54;57.98;99970.69;2063061;28;19909;-61
2021/06/30 02:42:41;;;;;;;;;;;;;;;21.53;57.67;99971.72;2063606;28;19949;-62
2021/06/30 02:43:42;;;;;;;;;;;;;;;21.53;57.82;99971.72;2063707;28;19921;-63
2021/06/30 02:44:42;;;;;;;;;;;;;;;21.53;57.99;99968.97;2063015;28;19913;-61
2021/06/30 02:45:42;;;;;;;;;;;;;;;21.52;57.68;99970.84;2060146;28;19910;-62
2021/06/30 02:46:44;;;;;;;;;;;;;;;21.51;58.06;99971.00;2063287;28;19913;-61
2021/06/30 02:47:45;;;;;;;;;;;;;;;21.52;57.88;99970.00;2062428;28;19905;-61
2021/06/30 02:48:45;;;;;;;;;;;;;;;21.52;57.88;99972.75;2062477;28;19920;-62
2021/06/30 02:49:45;;;;;;;;;;;;;;;21.51;57.93;99971.00;2063603;28;19909;-61
2021/06/30 02:50:46;;;;;;;;;;;;;;;21.51;57.89;99971.91;2062865;28;19920;-61
2021/06/30 02:51:46;;;;;;;;;;;;;;;21.51;57.70;99976.50;2063008;28;19916;-61
2021/06/30 02:52:47;;;;;;;;;;;;;;;21.52;57.74;99975.50;2061950;28;19913;-61
2021/06/30 02:53:47;;;;;;;;;;;;;;;21.53;58.03;99975.31;2064100;28;19910;-61
2021/06/30 02:54:48;;;;;;;;;;;;;;;21.53;57.88;99977.19;2063589;28;19913;-62
2021/06/30 02:55:48;;;;;;;;;;;;;;;21.53;57.87;99979.94;2061832;28;19975;-61
2021/06/30 02:56:48;;;;;;;;;;;;;;;21.52;57.99;99975.50;2053274;28;19942;-61
2021/06/30 02:57:49;;;;;;;;;;;;;;;21.52;57.87;99979.09;2054353;28;19945;-61
2021/06/30 02:58:50;;;;;;;;;;;;;;;21.53;57.82;99985.44;2060577;28;20384;-61
2021/06/30 02:59:50;;;;;;;;;;;;;;;21.51;57.72;99982.88;2062793;28;20776;-62
2021/06/30 03:00:50;;;;;;;;;;;;;;;21.51;57.70;99982.00;2062584;28;19909;-61
2021/06/30 03:01:50;;;;;;;;;;;;;;;21.52;57.82;99983.72;2063857;28;19957;-62
2021/06/30 03:02:51;;;;;;;;;;;;;;;21.51;57.99;99976.50;2063125;28;19925;-61
2021/06/30 03:03:51;;;;;;;;;;;;;;;21.50;57.90;99975.66;2063860;28;19918;-62
2021/06/30 03:04:52;;;;;;;;;;;;;;;21.50;58.02;99974.81;2063263;28;20132;-62
2021/06/30 03:05:52;;;;;;;;;;;;;;;21.51;58.00;99982.00;2062953;28;20347;-62
2021/06/30 03:06:52;;;;;;;;;;;;;;;21.50;57.91;99975.66;2063557;28;20000;-62
2021/06/30 03:07:53;;;;;;;;;;;;;;;21.52;57.82;99981.81;2063272;28;19916;-62
2021/06/30 03:08:53;;;;;;;;;;;;;;;21.51;57.80;99976.50;2063320;28;20120;-61
2021/06/30 03:09:53;;;;;;;;;;;;;;;21.50;57.91;99978.41;2054151;28;19913;-62
2021/06/30 03:10:53;;;;;;;;;;;;;;;21.51;57.82;99976.50;2054651;28;19909;-61
2021/06/30 03:11:54;;;;;;;;;;;;;;;21.50;58.10;99983.03;2063157;28;19932;-62
2021/06/30 03:12:54;;;;;;;;;;;;;;;21.49;57.85;99978.59;2063060;28;20079;-61
2021/06/30 03:13:55;;;;;;;;;;;;;;;21.49;57.83;99973.94;2062370;28;19913;-62
2021/06/30 03:14:55;;;;;;;;;;;;;;;21.50;57.99;99974.81;2063453;28;19928;-61
2021/06/30 03:15:55;;;;;;;;;;;;;;;21.49;57.66;99975.84;2063107;28;19917;-62
2021/06/30 03:16:56;;;;;;;;;;;;;;;21.49;58.10;99979.44;2063142;28;20406;-62
2021/06/30 03:17:56;;;;;;;;;;;;;;;21.50;57.85;99985.78;2062747;28;19924;-62
2021/06/30 03:18:56;;;;;;;;;;;;;;;21.49;57.95;99970.34;2063317;28;19958;-62
2021/06/30 03:19:57;;;;;;;;;;;;;;;21.48;58.02;99983.19;2062954;28;19913;-61
2021/06/30 03:20:57;;;;;;;;;;;;;;;21.50;58.03;99977.53;2062207;28;19914;-61
2021/06/30 03:21:57;;;;;;;;;;;;;;;21.50;57.99;99983.03;2063628;28;19953;-62
2021/06/30 03:22:58;;;;;;;;;;;;;;;21.48;58.06;99976.84;2063345;28;19952;-61
2021/06/30 03:23:58;;;;;;;;;;;;;;;21.48;58.02;99980.44;2063710;28;19905;-62
2021/06/30 03:24:58;;;;;;;;;;;;;;;21.49;58.11;99981.31;2053037;28;19913;-61
2021/06/30 03:25:59;;;;;;;;;;;;;;;21.47;57.80;99969.66;2054661;28;20321;-61
2021/06/30 03:27:00;;;;;;;;;;;;;;;21.48;57.86;99976.84;2063072;28;19948;-62
2021/06/30 03:28:00;;;;;;;;;;;;;;;21.47;57.92;99977.88;2062495;28;19908;-61
2021/06/30 03:29:02;;;;;;;;;;;;;;;21.47;57.77;99983.38;2062977;28;19963;-61
2021/06/30 03:30:03;;;;;;;;;;;;;;;21.46;57.85;99988.00;2060437;28;19917;-61
2021/06/30 03:31:04;;;;;;;;;;;;;;;21.49;57.66;99979.44;2064627;28;19937;-61
2021/06/30 03:32:04;;;;;;;;;;;;;;;21.48;57.94;99988.66;2062107;28;19949;-61
2021/06/30 03:33:04;;;;;;;;;;;;;;;21.49;57.86;99984.06;2063495;28;20026;-61
2021/06/30 03:34:05;;;;;;;;;;;;;;;21.49;57.98;99984.06;2062168;28;19913;-62
2021/06/30 03:35:06;;;;;;;;;;;;;;;21.47;57.72;99983.38;2063392;28;20028;-61
2021/06/30 03:36:06;;;;;;;;;;;;;;;21.50;57.86;99981.13;2062804;28;20355;-62
2021/06/30 03:37:07;;;;;;;;;;;;;;;21.49;57.63;99979.44;2063522;28;19906;-62
2021/06/30 03:38:25;;;;;;;;;;;;;;;21.50;57.80;99980.28;2062608;28;20280;-62
2021/06/30 03:39:25;;;;;;;;;;;;;;;21.49;57.87;99978.59;2061989;28;20407;-61
2021/06/30 03:40:25;;;;;;;;;;;;;;;21.47;57.72;99977.88;2063060;28;20575;-61
2021/06/30 03:41:26;;;;;;;;;;;;;;;21.47;57.89;99983.38;2061856;28;20028;-62
2021/06/30 03:42:26;;;;;;;;;;;;;;;21.48;58.08;99982.34;2063382;28;19920;-62
2021/06/30 03:43:26;;;;;;;;;;;;;;;21.46;57.93;99974.28;2062849;28;19937;-62
2021/06/30 03:44:27;;;;;;;;;;;;;;;21.46;57.94;99981.63;2063095;28;20292;-61
2021/06/30 03:45:27;;;;;;;;;;;;;;;21.45;57.83;99977.19;2063132;28;19948;-62
2021/06/30 03:46:27;;;;;;;;;;;;;;;21.46;57.86;99981.63;2063102;28;19978;-62
2021/06/30 03:47:28;;;;;;;;;;;;;;;21.45;58.08;99980.78;2054461;28;19949;-62
2021/06/30 03:48:28;;;;;;;;;;;;;;;21.46;57.75;99981.63;2053398;28;19952;-61
2021/06/30 03:49:28;;;;;;;;;;;;;;;21.50;57.94;99986.63;2058385;28;20508;-61
2021/06/30 03:50:29;;;;;;;;;;;;;;;21.50;57.74;99991.25;2060645;28;19905;-61
2021/06/30 03:51:29;;;;;;;;;;;;;;;21.47;57.95;99978.75;2064004;28;19951;-62
2021/06/30 03:52:30;;;;;;;;;;;;;;;21.49;57.66;99990.41;2062484;28;19902;-62
2021/06/30 03:53:30;;;;;;;;;;;;;;;21.48;57.85;99993.31;2061700;28;20411;-62
2021/06/30 03:54:31;;;;;;;;;;;;;;;21.47;57.83;99999.81;2064411;28;19952;-61
2021/06/30 03:55:31;;;;;;;;;;;;;;;21.46;57.83;99989.88;2062907;28;20352;-61
2021/06/30 03:56:31;;;;;;;;;;;;;;;21.47;57.88;99991.59;2062047;28;20373;-61
2021/06/30 03:57:32;;;;;;;;;;;;;;;21.46;57.79;99995.34;2063532;28;20383;-61
2021/06/30 03:58:33;;;;;;;;;;;;;;;21.45;57.84;99988.16;2063363;28;19971;-61
2021/06/30 03:59:33;;;;;;;;;;;;;;;21.45;57.96;99993.66;2058994;28;20060;-61
2021/06/30 04:00:33;;;;;;;;;;;;;;;21.44;57.89;99995.53;2061125;28;20366;-61
2021/06/30 04:01:34;;;;;;;;;;;;;;;21.45;57.76;99997.25;2057856;28;19913;-61
2021/06/30 04:02:34;;;;;;;;;;;;;;;21.45;57.95;99990.91;2054357;28;20077;-61
2021/06/30 04:03:34;;;;;;;;;;;;;;;21.45;57.86;99993.66;2054486;28;20434;-61
2021/06/30 04:04:34;;;;;;;;;;;;;;;21.46;57.93;99998.09;2062973;28;20650;-61
2021/06/30 04:05:35;;;;;;;;;;;;;;;21.46;57.85;99989.88;2062583;28;20342;-61
2021/06/30 04:06:35;;;;;;;;;;;;;;;21.46;57.83;99995.34;2063244;28;19963;-61
2021/06/30 04:07:35;;;;;;;;;;;;;;;21.46;57.77;99995.34;2062402;28;19920;-61
2021/06/30 04:08:36;;;;;;;;;;;;;;;21.47;57.83;99988.84;2063328;28;19906;-61
2021/06/30 04:09:36;;;;;;;;;;;;;;;21.48;57.79;99996.03;2063146;28;20295;-61
2021/06/30 04:10:37;;;;;;;;;;;;;;;21.49;57.91;100000.53;2062622;28;19905;-61
2021/06/30 04:11:37;;;;;;;;;;;;;;;21.47;58.06;99991.59;2062879;28;19909;-61
2021/06/30 04:12:37;;;;;;;;;;;;;;;21.47;57.77;99994.34;2063086;28;19913;-61
2021/06/30 04:13:38;;;;;;;;;;;;;;;21.45;57.87;99986.28;2062913;28;19920;-61
2021/06/30 04:14:38;;;;;;;;;;;;;;;21.46;57.64;99998.09;2057842;28;19964;-61
2021/06/30 04:15:39;;;;;;;;;;;;;;;21.46;57.94;100006.31;2059546;28;20028;-61
2021/06/30 04:16:40;;;;;;;;;;;;;;;21.45;57.73;100002.72;2063346;28;19910;-61
2021/06/30 04:17:40;;;;;;;;;;;;;;;21.45;57.64;100007.34;2062019;28;19948;-62
2021/06/30 04:18:40;;;;;;;;;;;;;;;21.46;57.71;100006.31;2062621;28;19914;-61
2021/06/30 04:19:41;;;;;;;;;;;;;;;21.44;57.76;100009.25;2063505;28;19953;-61
2021/06/30 04:20:42;;;;;;;;;;;;;;;21.45;57.83;100004.63;2063090;28;19913;-61
2021/06/30 04:21:43;;;;;;;;;;;;;;;21.45;57.60;100008.22;2063019;28;19913;-61
2021/06/30 04:22:43;;;;;;;;;;;;;;;21.44;57.79;100009.25;2062024;28;19913;-61
2021/06/30 04:23:44;;;;;;;;;;;;;;;21.45;57.92;100010.09;2063043;28;19913;-61
2021/06/30 04:24:44;;;;;;;;;;;;;;;21.46;57.95;100011.81;2062818;28;19917;-61
2021/06/30 04:25:47;;;;;;;;;;;;;;;21.45;57.86;100008.22;2062652;28;19920;-61
2021/06/30 04:26:48;;;;;;;;;;;;;;;21.46;57.85;100006.31;2062529;28;19913;-61
2021/06/30 04:27:48;;;;;;;;;;;;;;;21.45;57.90;100008.22;2062375;28;19913;-61
2021/06/30 04:28:48;;;;;;;;;;;;;;;21.46;57.65;100006.31;2063298;28;19928;-61
2021/06/30 04:29:49;;;;;;;;;;;;;;;21.44;57.95;100003.75;2061209;28;19992;-61
2021/06/30 04:30:49;;;;;;;;;;;;;;;21.46;57.80;100011.81;2063315;28;20036;-61
2021/06/30 04:31:49;;;;;;;;;;;;;;;21.46;57.77;100006.31;2062839;28;19905;-61
2021/06/30 04:32:49;;;;;;;;;;;;;;;21.45;57.84;100010.09;2062954;28;19996;-61
2021/06/30 04:33:50;;;;;;;;;;;;;;;21.45;57.58;100004.63;2060602;28;19921;-61
2021/06/30 04:34:50;;;;;;;;;;;;;;;21.44;57.95;100005.66;2063846;28;19921;-61
2021/06/30 04:35:51;;;;;;;;;;;;;;;21.45;58.00;100004.63;2059326;28;19902;-61
2021/06/30 04:36:51;;;;;;;;;;;;;;;21.45;57.95;100004.63;2062240;28;20306;-61
2021/06/30 04:37:51;;;;;;;;;;;;;;;21.44;57.98;100002.91;2062721;28;20327;-61
2021/06/30 04:38:52;;;;;;;;;;;;;;;21.44;57.59;100001.03;2062232;28;20594;-61
2021/06/30 04:39:52;;;;;;;;;;;;;;;21.43;57.88;100002.03;2062370;28;20365;-61
2021/06/30 04:40:53;;;;;;;;;;;;;;;21.44;57.89;100005.66;2062229;28;19921;-61
2021/06/30 04:41:53;;;;;;;;;;;;;;;21.45;57.60;100004.63;2062579;28;19913;-61
2021/06/30 04:42:53;;;;;;;;;;;;;;;21.45;57.82;100013.69;2062625;28;19906;-61
2021/06/30 04:43:54;;;;;;;;;;;;;;;21.44;57.74;100011.13;2062121;28;19955;-61
2021/06/30 04:44:54;;;;;;;;;;;;;;;21.44;57.54;100017.47;2062849;28;20265;-61
2021/06/30 04:45:55;;;;;;;;;;;;;;;21.44;57.77;100011.13;2062879;28;19909;-61
2021/06/30 04:46:55;;;;;;;;;;;;;;;21.44;57.89;100013.88;2062643;28;20421;-61
2021/06/30 04:47:56;;;;;;;;;;;;;;;21.45;57.90;100010.94;2062734;28;19940;-61
2021/06/30 04:48:56;;;;;;;;;;;;;;;21.45;57.47;100010.94;2061710;28;19956;-61
2021/06/30 04:49:56;;;;;;;;;;;;;;;21.45;57.84;100015.59;2053873;28;20639;-62
2021/06/30 04:50:57;;;;;;;;;;;;;;;21.44;57.75;100013.88;2053409;28;19921;-61
2021/06/30 04:51:57;;;;;;;;;;;;;;;21.43;57.75;100013.00;2063001;28;19948;-61
2021/06/30 04:52:57;;;;;;;;;;;;;;;21.43;57.76;100023.13;2062883;28;19914;-61
2021/06/30 04:53:57;;;;;;;;;;;;;;;21.44;57.83;100013.88;2062168;28;19956;-61
2021/06/30 04:54:58;;;;;;;;;;;;;;;21.43;57.57;100018.47;2061192;28;19914;-61
2021/06/30 04:55:59;;;;;;;;;;;;;;;21.43;57.65;100013.00;2063335;28;19952;-61
2021/06/30 04:56:59;;;;;;;;;;;;;;;21.44;57.74;100019.38;2064198;28;19913;-61
2021/06/30 04:57:59;;;;;;;;;;;;;;;21.44;57.74;100016.63;2062317;28;19924;-61
2021/06/30 04:59:00;;;;;;;;;;;;;;;21.44;57.70;100024.84;2061871;28;19909;-61
2021/06/30 05:00:00;;;;;;;;;;;;;;;21.43;57.62;100012.16;2063090;28;19956;-61
2021/06/30 05:01:00;;;;;;;;;;;;;;;21.43;57.97;100023.13;2063625;28;19909;-62
2021/06/30 05:02:00;;;;;;;;;;;;;;;21.42;57.60;100016.78;2060534;28;19920;-61
2021/06/30 05:03:01;;;;;;;;;;;;;;;21.42;57.78;100016.78;2064158;28;19909;-61
2021/06/30 05:04:02;;;;;;;;;;;;;;;21.43;57.57;100017.63;2061995;28;19921;-61
2021/06/30 05:05:03;;;;;;;;;;;;;;;21.46;57.83;100018.16;2062925;28;19905;-61
2021/06/30 05:06:03;;;;;;;;;;;;;;;21.43;57.60;100020.38;2062293;28;19996;-61
2021/06/30 05:07:03;;;;;;;;;;;;;;;21.43;57.70;100023.13;2062425;28;19948;-61
2021/06/30 05:08:04;;;;;;;;;;;;;;;21.43;57.68;100025.84;2062600;28;19967;-61
2021/06/30 05:09:04;;;;;;;;;;;;;;;21.42;57.64;100021.41;2062024;28;19914;-61
2021/06/30 05:10:05;;;;;;;;;;;;;;;21.40;57.72;100022.41;2062426;28;19912;-61
2021/06/30 05:11:05;;;;;;;;;;;;;;;21.42;57.60;100010.44;2062794;28;20107;-61
2021/06/30 05:12:05;;;;;;;;;;;;;;;21.40;57.60;100014.19;2062203;28;20367;-61
2021/06/30 05:13:06;;;;;;;;;;;;;;;21.39;57.64;100012.50;2063058;28;19906;-61
2021/06/30 05:14:06;;;;;;;;;;;;;;;21.42;57.51;100013.19;2061916;28;19956;-61